Besuchen Sie unsere anderen Wetter Stationen:

Template documentation
and downloads

And another site



METAR-Meldungen aus der Umgebung

   
EBAW - Antwerp
Aktualisierung: 18-10-2018 11:20
leicht bewölkt  
leicht bewölkt  
   Wind: NNO 14.8 km/h
Wind: NNO 14.8 km/h
Temperatur: 14°C
Taupunkt: 11°C
Luftfeuchte: 82%
Luftdruck: 1025 hPa
Bewölkt: leicht bewölkt
Sichtbarkeit: More than 10 km
Bewölkung: leicht bewölkt 1300 ft
EBAW 180920Z 02008KT 340V050 9999 FEW013 14/11 Q1025 NOSIG
EBLG - Liège
Aktualisierung: 18-10-2018 11:20
Stark bewölkt  
Stark bewölkt  
   Wind: NNO 16.7 km/h
Wind: NNO 16.7 km/h
Temperatur: 13°C
Taupunkt: 11°C
Luftfeuchte: 88%
Luftdruck: 1024 hPa
Bewölkt: Stark bewölkt
Sichtbarkeit: 7 km
Bewölkung: Stark bewölkt 700 ft
EBLG 180920Z 02009KT 7000 BKN007 13/11 Q1024 NOSIG
EBCV - Mons/Bergen
Aktualisierung: 18-10-2018 11:38
Teilweise bewölkt  
Teilweise bewölkt  
   Wind: NO 18.5 km/h
Wind: NO 18.5 km/h
Temperatur: 15°C
Taupunkt: 12°C
Luftfeuchte: 82%
Luftdruck: 1024 hPa
Bewölkt: Teilweise bewölkt
Sichtbarkeit: More than 10 km
Bewölkung: Teilweise bewölkt 1300 ft
EBCV 180938Z AUTO 05010KT 9999 SCT013/// 15/12 Q1024 GRN
EHBK - Maastricht
Aktualisierung: 18-10-2018 11:25
Bewölkt  
Bewölkt  
   Wind: NNO 20.4 km/h
Wind: NNO 20.4 km/h
Temperatur: 14°C
Taupunkt: 11°C
Luftfeuchte: 82%
Luftdruck: 1023 hPa
Bewölkt: Bewölkt
Sichtbarkeit: More than 10 km
Bewölkung: Bewölkt 2000 ft
EHBK 180925Z AUTO 02011KT 9999 OVC020 14/11 Q1023 TEMPO 6000 BKN009
ELLX - Luxemburg
Aktualisierung: 18-10-2018 11:20
Nebel, Stark bewölkt  
Nebel, Stark bewölkt  
   Wind: NO 24.1 km/h
Wind: NO 24.1 km/h
Temperatur: 14°C
Taupunkt: 12°C
Luftfeuchte: 88%
Luftdruck: 1022 hPa
Bewölkt: Stark bewölkt
Sichtbarkeit: 2 km
Bewölkung: Stark bewölkt 900 ft
ELLX 180920Z 04013KT 2200 BR BKN009 14/12 Q1022 BECMG 5000
EBOS - Oostende
Aktualisierung: 18-10-2018 11:20
Stark bewölkt  
Stark bewölkt  
   Wind: NO 22.2 km/h
Wind: NO 22.2 km/h
Temperatur: 15°C
Taupunkt: 11°C
Luftfeuchte: 77%
Luftdruck: 1025 hPa
Bewölkt: Stark bewölkt
Sichtbarkeit: More than 10 km
Bewölkung: Teilweise bewölkt 1900 ft,
Stark bewölkt 4200 ft
EBOS 180920Z 04012KT 9999 SCT019 BKN042 15/11 Q1025 NOSIG

Script entwickelt von  Saratoga-weather.org Angepasst für das Template von  Weerstation Leuven

Sie finden unser Wetter-Infos auch auf:

netzwerkwettercom

European Weather Network

WeatherCloud

Weather Underground

AWEKAS

Citizen Weather Observer Program (CWOP)

HAMweather, WeatherForYou, PWS Weather

Von uns verwendete Ausrüstung:

Wetterstation
Davis VP2 Aktiv Plus 6163EU

Wetterprogramm
Weather Display

Davis VP2 Aktiv Plus  6163EU

Weather Display